Time;durP1;ratioP1;P1;durP2;ratioP2;P2;SDS_P1;SDS_P2;PMS_P1;PMS_P2;Temp;Humidity;BMP_temperature;BMP_pressure;BME280_temperature;BME280_humidity;BME280_pressure;Samples;Min_cycle;Max_cycle;Signal;HPM_P1;HPM_P2
2022/10/04 00:01:43;;;;;;;6.63;2.23;;;8.90;99.90;;;;;;5013765;28;20204;-85
2022/10/04 00:04:16;;;;;;;4.77;2.83;;;10.10;99.90;;;;;;5013785;28;20632;-85
2022/10/04 00:06:50;;;;;;;5.53;3.77;;;9.10;99.90;;;;;;5014176;28;20169;-85
2022/10/04 00:09:22;;;;;;;17.50;3.53;;;9.10;99.90;;;;;;5014019;28;20220;-84
2022/10/04 00:11:49;;;;;;;7.00;4.10;;;10.20;99.90;;;;;;5012829;28;20220;-85
2022/10/04 00:14:19;;;;;;;4.33;3.20;;;9.20;99.90;;;;;;5014125;28;20235;-85
2022/10/04 00:16:46;;;;;;;4.93;3.53;;;9.10;99.90;;;;;;5014133;28;20188;-86
2022/10/04 00:19:14;;;;;;;5.00;3.80;;;9.20;99.90;;;;;;5013015;28;20635;-85
2022/10/04 00:21:55;;;;;;;5.37;3.40;;;9.40;99.90;;;;;;5013365;28;20223;-86
2022/10/04 00:24:21;;;;;;;3.97;3.00;;;9.40;99.90;;;;;;5013304;28;20196;-85
2022/10/04 00:26:47;;;;;;;4.30;3.20;;;10.90;99.90;;;;;;5014124;28;20268;-85
2022/10/04 00:29:33;;;;;;;10.23;4.10;;;9.40;99.90;;;;;;5014231;28;20252;-85
2022/10/04 00:32:10;;;;;;;6.70;3.90;;;9.40;99.90;;;;;;5023768;28;20251;-86
2022/10/04 00:34:46;;;;;;;9.50;3.73;;;9.40;99.90;;;;;;5021521;28;20192;-85
2022/10/04 00:37:24;;;;;;;11.50;4.97;;;9.40;99.90;;;;;;5021011;28;20272;-84
2022/10/04 00:40:16;;;;;;;14.40;6.70;;;9.50;99.90;;;;;;5032571;28;20188;-85
2022/10/04 00:42:45;;;;;;;9.20;5.90;;;10.30;99.90;;;;;;5036089;28;20218;-85
2022/10/04 00:45:29;;;;;;;13.60;7.10;;;9.60;99.90;;;;;;5041182;28;20208;-85
2022/10/04 00:48:18;;;;;;;7.33;5.13;;;9.60;99.90;;;;;;5039483;28;20225;-85
2022/10/04 00:50:57;;;;;;;10.43;6.80;;;9.60;99.90;;;;;;5041504;28;20165;-84
2022/10/04 00:53:53;;;;;;;12.90;7.13;;;9.60;99.90;;;;;;5037857;28;20641;-84
2022/10/04 00:56:50;;;;;;;10.53;6.27;;;9.60;99.90;;;;;;5034969;28;20185;-85
2022/10/04 00:59:20;;;;;;;11.20;6.87;;;9.60;99.90;;;;;;5025931;28;20350;-84
2022/10/04 01:01:51;;;;;;;12.53;6.47;;;9.60;99.90;;;;;;5036588;28;20235;-84
2022/10/04 01:04:34;;;;;;;13.20;6.83;;;9.60;99.90;;;;;;5039503;28;20228;-86
2022/10/04 01:07:02;;;;;;;17.10;6.53;;;9.60;99.90;;;;;;5040042;28;20176;-85
2022/10/04 01:09:33;;;;;;;9.73;6.43;;;10.20;99.90;;;;;;5037573;28;20176;-85
2022/10/04 01:12:09;;;;;;;11.97;6.53;;;9.60;99.90;;;;;;5035991;28;20185;-85
2022/10/04 01:14:50;;;;;;;11.63;6.20;;;9.80;99.90;;;;;;5036180;28;20828;-86
2022/10/04 01:17:16;;;;;;;9.73;5.90;;;9.60;99.90;;;;;;5036072;28;20512;-86
2022/10/04 01:19:52;;;;;;;16.57;6.87;;;9.50;99.90;;;;;;5035480;28;20191;-85
2022/10/04 01:22:42;;;;;;;14.17;6.33;;;10.80;99.90;;;;;;5036335;28;20211;-88
2022/10/04 01:25:08;;;;;;;7.50;5.13;;;9.60;99.90;;;;;;5035471;28;20230;-85
2022/10/04 01:27:39;;;;;;;15.17;3.93;;;9.60;99.90;;;;;;5035797;28;20520;-86
2022/10/04 01:30:16;;;;;;;4.20;3.00;;;9.50;99.90;;;;;;5026169;28;20180;-85
2022/10/04 01:32:42;;;;;;;11.20;3.73;;;9.50;99.90;;;;;;5017432;28;20263;-85
2022/10/04 01:35:10;;;;;;;7.87;3.57;;;9.40;99.90;;;;;;5009294;28;20208;-86
2022/10/04 01:37:38;;;;;;;5.60;3.67;;;10.40;99.90;;;;;;5017027;28;20181;-86
2022/10/04 01:40:05;;;;;;;5.57;3.20;;;9.30;99.90;;;;;;4999104;28;20189;-85
2022/10/04 01:42:40;;;;;;;7.13;3.80;;;9.30;99.90;;;;;;4998618;28;20213;-85
2022/10/04 01:45:21;;;;;;;28.03;5.37;;;10.80;99.90;;;;;;5016277;28;20618;-85
2022/10/04 01:47:52;;;;;;;11.83;5.03;;;9.70;99.90;;;;;;5015506;28;20256;-85
2022/10/04 01:50:36;;;;;;;9.27;4.90;;;9.30;99.90;;;;;;5015139;28;20203;-85
2022/10/04 01:53:23;;;;;;;6.23;4.17;;;9.30;99.90;;;;;;5014674;28;20181;-86
2022/10/04 01:56:03;;;;;;;7.50;3.57;;;10.10;99.90;;;;;;5015943;28;20208;-86
2022/10/04 01:58:40;;;;;;;3.53;2.87;;;9.30;99.90;;;;;;5014568;28;20181;-86
2022/10/04 02:01:14;;;;;;;3.00;2.53;;;9.20;99.90;;;;;;5014262;28;20179;-87
2022/10/04 02:03:46;;;;;;;3.57;2.93;;;10.70;99.90;;;;;;5015946;28;20180;-86
2022/10/04 02:06:14;;;;;;;3.53;2.10;;;9.20;99.90;;;;;;5015456;28;20698;-86
2022/10/04 02:08:48;;;;;;;5.47;2.30;;;9.20;99.90;;;;;;5020305;28;20184;-85
2022/10/04 02:11:20;;;;;;;2.53;2.20;;;9.20;99.90;;;;;;5025844;28;20227;-86
2022/10/04 02:13:50;;;;;;;7.10;2.27;;;9.20;99.90;;;;;;5021842;28;20188;-86
2022/10/04 02:16:17;;;;;;;2.43;2.23;;;9.10;99.90;;;;;;5014904;28;20208;-86
2022/10/04 02:18:44;;;;;;;3.30;2.23;;;9.10;99.90;;;;;;5015071;28;20260;-86
2022/10/04 02:21:11;;;;;;;3.47;2.37;;;9.10;99.90;;;;;;5015664;28;20181;-86
2022/10/04 02:23:39;;;;;;;4.17;2.87;;;10.10;99.90;;;;;;5015293;28;20265;-86
2022/10/04 02:26:09;;;;;;;3.37;2.23;;;9.10;99.90;;;;;;5015435;28;20178;-86
2022/10/04 02:28:35;;;;;;;3.77;2.20;;;9.50;99.90;;;;;;5015451;28;20181;-86
2022/10/04 02:33:50;;;;;;;9.93;3.07;;;9.00;99.90;;;;;;5015542;28;20239;-86
2022/10/04 02:36:16;;;;;;;7.27;3.17;;;8.90;99.90;;;;;;5014874;28;20811;-87
2022/10/04 02:39:03;;;;;;;1.97;1.70;;;8.90;99.90;;;;;;5013872;28;20627;-86
2022/10/04 02:41:43;;;;;;;3.27;2.20;;;8.90;99.90;;;;;;5013917;28;20209;-85
2022/10/04 02:44:25;;;;;;;5.60;3.37;;;8.90;99.90;;;;;;5014853;28;20228;-86
2022/10/04 02:47:17;;;;;;;5.20;3.23;;;8.90;99.90;;;;;;5015162;28;20204;-86
2022/10/04 02:50:12;;;;;;;9.00;3.80;;;8.90;99.90;;;;;;5015325;28;20165;-86
2022/10/04 02:52:49;;;;;;;5.20;3.27;;;8.90;99.90;;;;;;5014984;28;20264;-86
2022/10/04 02:55:20;;;;;;;6.90;3.40;;;8.90;99.90;;;;;;5014346;28;20165;-86
2022/10/04 02:57:46;;;;;;;10.50;4.03;;;9.00;99.90;;;;;;5014730;28;20288;-86
2022/10/04 03:00:15;;;;;;;8.43;4.60;;;8.90;99.90;;;;;;4996760;28;20182;-86
2022/10/04 03:03:01;;;;;;;6.60;3.93;;;9.10;99.90;;;;;;5013076;28;20208;-86
2022/10/04 03:05:26;;;;;;;7.27;4.10;;;9.10;99.90;;;;;;5014563;28;20671;-86
2022/10/04 03:07:52;;;;;;;6.77;4.20;;;9.00;99.90;;;;;;5014682;28;20185;-86
2022/10/04 03:10:18;;;;;;;10.87;4.37;;;9.10;99.90;;;;;;5013223;28;20284;-87
2022/10/04 03:12:49;;;;;;;5.90;3.93;;;9.10;99.90;;;;;;5013390;28;20187;-86
2022/10/04 03:15:15;;;;;;;9.83;4.63;;;9.70;99.90;;;;;;5014233;28;20172;-86
2022/10/04 03:17:42;;;;;;;7.60;4.80;;;9.30;99.90;;;;;;5013119;28;20185;-87
2022/10/04 03:20:13;;;;;;;5.83;3.50;;;9.30;99.90;;;;;;5013294;28;20307;-86
2022/10/04 03:22:40;;;;;;;7.80;3.87;;;9.30;99.90;;;;;;5014406;28;20251;-86
2022/10/04 03:25:11;;;;;;;7.40;2.90;;;9.50;99.90;;;;;;5013185;28;20220;-86
2022/10/04 03:27:38;;;;;;;8.00;3.50;;;9.40;99.90;;;;;;5012287;28;20187;-86
2022/10/04 03:30:04;;;;;;;4.00;2.90;;;9.40;99.90;;;;;;5014357;28;20264;-86
2022/10/04 03:32:31;;;;;;;9.93;3.77;;;9.50;99.90;;;;;;5012870;28;20240;-85
2022/10/04 03:35:01;;;;;;;6.33;3.57;;;11.10;99.90;;;;;;5013141;28;20649;-86
2022/10/04 03:37:29;;;;;;;5.00;3.80;;;9.60;99.90;;;;;;5015759;28;20178;-85
2022/10/04 03:39:56;;;;;;;8.77;3.97;;;10.50;99.90;;;;;;5018639;28;20193;-86
2022/10/04 03:45:28;;;;;;;5.33;3.50;;;9.70;99.90;;;;;;4953594;29;20399;-86
2022/10/04 03:47:58;;;;;;;10.13;4.77;;;9.70;99.90;;;;;;5011923;28;20556;-86
2022/10/04 03:50:33;;;;;;;5.80;3.77;;;9.70;99.90;;;;;;5014042;28;20166;-87
2022/10/04 03:53:14;;;;;;;7.10;4.43;;;9.70;99.90;;;;;;5013683;28;20623;-85
2022/10/04 03:55:43;;;;;;;4.80;3.07;;;9.70;99.90;;;;;;5029704;28;20176;-85
2022/10/04 03:58:10;;;;;;;5.80;3.37;;;10.10;99.90;;;;;;5033546;28;20222;-86
2022/10/04 04:00:42;;;;;;;8.07;3.83;;;10.90;99.90;;;;;;5033610;28;20180;-86
2022/10/04 04:03:14;;;;;;;4.70;3.00;;;9.80;99.90;;;;;;5033052;28;20203;-87
2022/10/04 04:05:48;;;;;;;5.97;3.17;;;9.80;99.90;;;;;;5032710;28;20219;-86
2022/10/04 04:08:32;;;;;;;4.07;2.53;;;9.80;99.90;;;;;;5032365;28;20241;-87
2022/10/04 04:11:01;;;;;;;6.93;2.63;;;9.80;99.90;;;;;;5035357;28;20194;-87
2022/10/04 04:14:09;;;;;;;7.13;3.47;;;9.70;99.90;;;;;;5032503;28;20210;-87
2022/10/04 04:16:36;;;;;;;6.07;3.67;;;9.80;99.90;;;;;;5032491;28;20183;-86
2022/10/04 04:19:09;;;;;;;6.50;3.77;;;10.20;99.90;;;;;;5032291;28;20172;-86
2022/10/04 04:21:35;;;;;;;7.83;3.80;;;9.70;99.90;;;;;;5032254;28;20618;-86
2022/10/04 04:24:27;;;;;;;5.77;3.30;;;11.20;99.90;;;;;;5032224;28;20183;-86
2022/10/04 04:26:57;;;;;;;6.07;2.87;;;9.80;99.90;;;;;;5032573;28;20193;-86
2022/10/04 04:29:43;;;;;;;4.77;2.50;;;10.20;99.90;;;;;;5033746;28;20309;-86
2022/10/04 04:32:17;;;;;;;4.20;2.87;;;10.20;99.90;;;;;;5032144;28;20232;-87
2022/10/04 04:35:06;;;;;;;7.53;3.43;;;9.80;99.90;;;;;;5033289;28;20169;-86
2022/10/04 04:37:37;;;;;;;6.03;4.20;;;9.80;99.90;;;;;;5032187;28;20581;-85
2022/10/04 04:40:21;;;;;;;3.83;3.13;;;10.10;99.90;;;;;;5035537;28;20206;-85
2022/10/04 04:42:47;;;;;;;3.83;2.73;;;9.70;99.90;;;;;;5037145;28;20204;-85
2022/10/04 04:45:21;;;;;;;8.63;2.37;;;10.60;99.90;;;;;;5036778;28;20592;-86
2022/10/04 04:47:49;;;;;;;5.30;3.27;;;9.80;99.90;;;;;;5037153;28;20161;-86
2022/10/04 04:50:29;;;;;;;3.57;2.90;;;10.70;99.90;;;;;;5035771;28;20177;-85
2022/10/04 04:56:05;;;;;;;5.67;3.13;;;10.40;99.90;;;;;;5030942;28;20191;-86
2022/10/04 04:58:46;;;;;;;5.33;2.70;;;9.70;99.90;;;;;;5036673;28;20617;-86
2022/10/04 05:01:22;;;;;;;3.63;2.90;;;10.80;99.90;;;;;;5035305;28;20177;-87
2022/10/04 05:04:01;;;;;;;5.03;2.90;;;9.70;99.90;;;;;;5035337;28;20183;-86
2022/10/04 05:06:29;;;;;;;3.83;3.03;;;9.90;99.90;;;;;;5037676;28;20233;-86
2022/10/04 05:08:55;;;;;;;3.07;2.67;;;10.00;99.90;;;;;;5038053;28;20172;-87
2022/10/04 05:11:24;;;;;;;4.00;2.70;;;9.80;99.90;;;;;;5036913;28;20184;-87
2022/10/04 05:13:54;;;;;;;3.53;2.60;;;9.70;99.90;;;;;;5035778;28;20180;-86
2022/10/04 05:16:41;;;;;;;7.47;3.00;;;9.70;99.90;;;;;;5035130;28;20251;-88
2022/10/04 05:19:22;;;;;;;4.73;2.60;;;9.70;99.90;;;;;;5035975;28;20546;-87
2022/10/04 05:21:51;;;;;;;3.87;2.77;;;9.80;99.90;;;;;;5036511;28;20215;-86
2022/10/04 05:24:29;;;;;;;3.70;2.50;;;9.70;99.90;;;;;;5034957;28;20685;-87
2022/10/04 05:27:01;;;;;;;4.63;2.00;;;9.70;99.90;;;;;;5036342;28;20161;-88
2022/10/04 05:29:36;;;;;;;2.37;1.87;;;9.80;99.90;;;;;;5037712;28;20165;-86
2022/10/04 05:32:28;;;;;;;1.80;1.30;;;9.80;99.90;;;;;;5036847;28;20220;-87
2022/10/04 05:34:54;;;;;;;3.77;1.63;;;9.80;99.90;;;;;;5023971;28;20169;-87
2022/10/04 05:37:55;;;;;;;2.87;2.03;;;9.90;99.90;;;;;;5034788;28;20212;-87
2022/10/04 05:40:43;;;;;;;1.83;1.63;;;9.90;99.90;;;;;;5015391;28;20288;-92
2022/10/04 05:43:30;;;;;;;2.58;1.83;;;9.90;99.90;;;;;;5016149;28;20200;-87
2022/10/04 05:46:24;;;;;;;1.67;1.27;;;10.00;99.90;;;;;;5014464;28;20223;-88
2022/10/04 05:48:54;;;;;;;3.75;1.85;;;10.00;99.90;;;;;;5035295;28;20239;-87
2022/10/04 05:51:42;;;;;;;2.10;1.90;;;10.00;99.90;;;;;;5033272;28;20626;-87
2022/10/04 05:54:09;;;;;;;1.47;1.13;;;10.60;99.90;;;;;;5020723;28;20197;-87
2022/10/04 05:57:01;;;;;;;3.50;1.87;;;10.00;99.90;;;;;;5034124;28;20183;-85
2022/10/04 05:59:35;;;;;;;3.03;1.52;;;10.00;99.90;;;;;;5015525;28;20615;-86
2022/10/04 06:02:53;;;;;;;3.47;1.63;;;10.00;99.90;;;;;;5033494;28;20644;-86
2022/10/04 06:05:34;;;;;;;2.67;1.70;;;10.00;99.90;;;;;;5025858;28;20254;-88
2022/10/04 06:08:07;;;;;;;2.00;1.70;;;10.10;99.90;;;;;;5035345;28;20259;-87
2022/10/04 06:11:04;;;;;;;16.75;1.98;;;10.00;99.90;;;;;;5033685;28;20268;-86
2022/10/04 06:14:00;;;;;;;2.47;1.90;;;10.10;99.90;;;;;;5031824;28;20204;-87
2022/10/04 06:16:26;;;;;;;3.17;2.43;;;10.10;99.90;;;;;;5028230;28;20190;-89
2022/10/04 06:19:16;;;;;;;6.37;2.63;;;10.20;99.90;;;;;;5022080;28;20173;-87
2022/10/04 06:21:59;;;;;;;2.43;1.90;;;10.20;99.90;;;;;;5021711;28;20197;-88
2022/10/04 06:24:30;;;;;;;2.78;1.95;;;10.20;99.90;;;;;;5026103;28;20235;-87
2022/10/04 06:27:00;;;;;;;1.80;1.60;;;10.20;99.90;;;;;;5036203;28;20173;-87
2022/10/04 06:29:34;;;;;;;3.57;1.63;;;10.30;99.90;;;;;;5017245;28;20180;-87
2022/10/04 06:32:25;;;;;;;2.53;1.90;;;10.20;99.90;;;;;;5013889;28;20266;-86
2022/10/04 06:34:54;;;;;;;2.60;1.90;;;10.20;99.90;;;;;;5020952;28;20157;-86
2022/10/04 06:37:43;;;;;;;2.80;2.30;;;10.20;99.90;;;;;;5020377;28;20185;-87
2022/10/04 06:40:19;;;;;;;1.75;1.48;;;10.20;99.90;;;;;;5030941;28;20229;-86
2022/10/04 06:42:57;;;;;;;1.40;1.25;;;10.30;99.90;;;;;;5019244;28;20208;-85
2022/10/04 06:45:42;;;;;;;3.15;2.00;;;10.30;99.90;;;;;;5029512;28;20204;-87
2022/10/04 06:48:30;;;;;;;6.82;2.80;;;10.20;99.90;;;;;;5020792;28;20176;-87
2022/10/04 06:51:02;;;;;;;4.15;2.25;;;10.30;99.90;;;;;;4998538;28;20200;-86
2022/10/04 06:53:48;;;;;;;2.72;2.10;;;10.30;99.90;;;;;;5017692;28;20204;-86
2022/10/04 06:56:16;;;;;;;3.13;2.22;;;10.30;99.90;;;;;;4981584;28;20192;-86
2022/10/04 06:59:01;;;;;;;3.38;2.65;;;10.40;99.90;;;;;;5033323;28;20181;-87
2022/10/04 07:01:28;;;;;;;5.07;3.43;;;12.00;99.90;;;;;;5034760;28;20279;-87
2022/10/04 07:04:26;;;;;;;4.38;3.42;;;10.80;99.90;;;;;;5033410;28;20572;-88
2022/10/04 07:10:20;;;;;;;4.47;2.75;;;10.50;99.90;;;;;;5035113;28;20171;-88
2022/10/04 07:13:12;;;;;;;3.50;3.13;;;10.50;99.90;;;;;;5034891;28;20232;-87
2022/10/04 07:15:51;;;;;;;5.05;3.13;;;10.60;99.90;;;;;;5034401;28;20172;-87
2022/10/04 07:18:25;;;;;;;6.30;3.90;;;10.70;99.90;;;;;;5033590;28;20223;-87
2022/10/04 07:21:07;;;;;;;3.92;3.05;;;11.00;99.90;;;;;;5033132;28;20206;-89
2022/10/04 07:23:52;;;;;;;5.45;3.97;;;10.90;99.90;;;;;;5033567;28;20338;-90
2022/10/04 07:26:35;;;;;;;4.43;2.67;;;10.90;99.90;;;;;;5034256;28;20171;-87
2022/10/04 07:29:21;;;;;;;7.00;2.70;;;10.90;99.90;;;;;;5034517;28;20168;-88
2022/10/04 07:32:16;;;;;;;5.30;3.42;;;11.20;99.90;;;;;;5033508;28;20307;-88
2022/10/04 07:34:57;;;;;;;3.65;2.88;;;12.10;99.90;;;;;;5030416;28;20198;-88
2022/10/04 07:37:26;;;;;;;6.50;3.75;;;11.10;99.90;;;;;;5034339;28;20195;-88
2022/10/04 07:39:59;;;;;;;5.30;3.10;;;11.10;99.90;;;;;;5033148;28;20267;-88
2022/10/04 07:42:45;;;;;;;4.82;3.50;;;11.10;99.90;;;;;;5033770;28;20299;-87
2022/10/04 07:45:33;;;;;;;6.88;2.78;;;11.10;99.90;;;;;;5039001;28;20165;-89
2022/10/04 07:48:22;;;;;;;4.13;2.88;;;10.90;99.90;;;;;;5039398;28;20268;-87
2022/10/04 07:50:53;;;;;;;8.45;4.18;;;11.00;99.90;;;;;;5037458;28;20184;-88
2022/10/04 07:53:46;;;;;;;4.00;2.65;;;11.00;99.90;;;;;;5040370;28;20195;-88
2022/10/04 07:56:21;;;;;;;6.22;2.75;;;11.00;99.90;;;;;;5045377;28;20168;-88
2022/10/04 07:59:11;;;;;;;4.05;2.83;;;11.00;99.90;;;;;;5046466;28;20203;-89
2022/10/04 08:01:53;;;;;;;4.95;3.03;;;11.00;99.90;;;;;;5047086;28;20203;-95
2022/10/04 08:04:49;;;;;;;4.90;2.80;;;11.00;99.90;;;;;;5045510;28;20184;-91
2022/10/04 08:07:47;;;;;;;3.95;2.70;;;11.00;99.90;;;;;;5034274;28;20177;-90
2022/10/04 08:10:28;;;;;;;2.35;2.17;;;11.10;99.90;;;;;;5023980;28;20189;-90
2022/10/04 08:13:13;;;;;;;3.85;3.03;;;11.00;99.90;;;;;;5012402;28;20200;-91
2022/10/04 08:15:43;;;;;;;10.10;3.70;;;11.10;99.90;;;;;;5017275;28;20199;-90
2022/10/04 08:18:45;;;;;;;5.75;3.17;;;12.20;99.90;;;;;;5000189;28;20224;-89
2022/10/04 08:21:22;;;;;;;3.85;2.70;;;11.00;99.90;;;;;;5017894;28;20165;-89
2022/10/04 08:23:56;;;;;;;2.90;2.50;;;11.10;99.90;;;;;;5022543;28;20183;-90
2022/10/04 08:26:25;;;;;;;2.58;2.28;;;11.40;99.90;;;;;;5029284;28;20187;-90
2022/10/04 08:32:09;;;;;;;4.40;2.67;;;11.30;99.90;;;;;;5036673;28;20239;-87
2022/10/04 08:34:56;;;;;;;5.65;3.45;;;11.50;99.90;;;;;;5035947;28;20173;-88
2022/10/04 08:37:59;;;;;;;3.92;2.83;;;11.80;99.90;;;;;;5036279;28;20173;-88
2022/10/04 08:40:43;;;;;;;5.05;3.60;;;11.80;99.90;;;;;;5023878;28;20188;-87
2022/10/04 08:43:28;;;;;;;3.20;2.85;;;12.00;99.90;;;;;;5036769;28;20562;-88
2022/10/04 08:46:16;;;;;;;4.05;3.15;;;12.20;99.90;;;;;;5036954;28;20173;-88
2022/10/04 08:49:00;;;;;;;3.35;2.72;;;12.40;99.90;;;;;;5038021;28;20171;-90
2022/10/04 08:52:03;;;;;;;8.80;3.63;;;12.40;99.90;;;;;;5036576;28;20234;-91
2022/10/04 08:54:45;;;;;;;3.88;2.63;;;12.30;99.90;;;;;;5034998;28;20187;-90
2022/10/04 08:57:14;;;;;;;3.95;3.05;;;12.30;99.90;;;;;;5036624;28;20204;-88
2022/10/04 09:00:03;;;;;;;3.17;2.20;;;12.30;99.90;;;;;;5036717;28;20168;-93
2022/10/04 09:02:38;;;;;;;3.42;2.47;;;12.30;99.90;;;;;;5032255;28;20212;-89
2022/10/04 09:05:41;;;;;;;3.35;2.92;;;12.30;99.90;;;;;;5036324;28;20652;-89
2022/10/04 09:08:34;;;;;;;3.58;2.58;;;12.20;99.90;;;;;;5035719;28;20195;-89
2022/10/04 09:11:42;;;;;;;2.38;2.17;;;12.30;99.90;;;;;;5036532;28;20532;-89
2022/10/04 09:14:41;;;;;;;2.78;2.17;;;12.30;99.90;;;;;;5035723;28;20277;-89
2022/10/04 09:17:21;;;;;;;7.15;2.75;;;12.30;99.90;;;;;;5035157;28;20185;-89
2022/10/04 09:19:53;;;;;;;2.25;2.03;;;12.40;99.90;;;;;;5035370;28;20181;-89
2022/10/04 09:22:33;;;;;;;3.50;2.20;;;12.40;99.90;;;;;;5035197;28;20209;-89
2022/10/04 09:25:16;;;;;;;2.25;1.73;;;13.10;99.90;;;;;;5035096;28;20176;-89
2022/10/04 09:28:00;;;;;;;2.67;2.47;;;12.30;99.90;;;;;;5034908;28;20263;-88
2022/10/04 09:30:58;;;;;;;5.07;2.60;;;12.30;99.90;;;;;;5035561;28;20211;-90
2022/10/04 09:33:54;;;;;;;3.30;2.33;;;12.30;99.90;;;;;;5023615;28;20215;-88
2022/10/04 09:36:39;;;;;;;3.35;2.38;;;12.40;99.90;;;;;;5036054;28;20168;-88
2022/10/04 09:39:21;;;;;;;2.97;2.67;;;12.40;99.90;;;;;;5034871;28;20177;-88
2022/10/04 09:41:59;;;;;;;3.25;2.20;;;12.30;99.90;;;;;;5034857;28;20710;-89
2022/10/04 09:45:06;;;;;;;3.13;2.30;;;12.30;99.90;;;;;;5034891;28;20190;-89
2022/10/04 09:47:44;;;;;;;3.38;2.22;;;12.50;99.90;;;;;;4983037;28;20188;-89
2022/10/04 09:50:36;;;;;;;2.35;1.90;;;12.60;99.90;;;;;;5016299;28;20250;-87
2022/10/04 09:53:16;;;;;;;4.45;2.75;;;12.70;99.90;;;;;;5015020;28;20228;-86
2022/10/04 09:56:01;;;;;;;12.00;2.05;;;12.70;99.90;;;;;;5018248;28;20165;-87
2022/10/04 09:58:45;;;;;;;7.13;2.05;;;12.70;99.90;;;;;;5015898;28;20673;-89
2022/10/04 10:01:32;;;;;;;10.13;1.75;;;12.50;99.90;;;;;;5015820;28;20165;-89
2022/10/04 10:04:17;;;;;;;3.00;1.48;;;12.70;99.90;;;;;;5014613;28;20193;-88
2022/10/04 10:06:54;;;;;;;2.10;1.60;;;13.00;99.90;;;;;;5026433;28;20187;-89
2022/10/04 10:16:03;;;;;;;3.72;2.38;;;13.40;99.90;;;;;;5015953;28;20319;-88
2022/10/04 10:18:58;;;;;;;3.15;1.85;;;13.60;99.90;;;;;;5034510;28;20173;-89
2022/10/04 10:21:35;;;;;;;2.33;1.67;;;13.80;99.90;;;;;;5032507;28;20184;-89
2022/10/04 10:24:26;;;;;;;3.58;1.75;;;13.90;99.90;;;;;;5031580;28;20224;-92
2022/10/04 10:27:06;;;;;;;1.98;1.83;;;13.90;99.90;;;;;;5034604;28;20267;-89
2022/10/04 10:29:46;;;;;;;3.72;1.95;;;13.80;99.90;;;;;;5035229;28;20633;-89
2022/10/04 10:32:14;;;;;;;1.83;1.73;;;13.80;99.90;;;;;;5033703;28;20322;-88
2022/10/04 10:35:16;;;;;;;2.88;1.80;;;13.90;99.90;;;;;;5034157;28;20230;-89
2022/10/04 10:38:14;;;;;;;2.47;1.90;;;13.50;99.90;;;;;;5033455;28;20184;-87
2022/10/04 10:40:58;;;;;;;2.78;1.85;;;13.80;99.90;;;;;;5034539;28;20183;-90
2022/10/04 10:43:45;;;;;;;4.00;1.58;;;13.80;99.90;;;;;;5032729;28;20204;-89
2022/10/04 10:46:26;;;;;;;1.95;1.75;;;13.90;99.90;;;;;;5035117;28;20246;-90
2022/10/04 10:49:10;;;;;;;2.03;1.33;;;13.90;99.90;;;;;;5034201;28;20505;-89
2022/10/04 10:52:00;;;;;;;3.05;1.60;;;14.00;99.90;;;;;;5038082;28;20165;-89
2022/10/04 10:54:56;;;;;;;2.33;1.52;;;14.10;99.90;;;;;;5035542;28;20165;-89
2022/10/04 10:57:34;;;;;;;1.92;1.60;;;14.10;99.90;;;;;;5033566;28;20180;-92
2022/10/04 11:00:06;;;;;;;2.00;1.55;;;13.90;99.90;;;;;;5034375;28;20177;-90
2022/10/04 11:02:59;;;;;;;4.20;1.95;;;13.80;99.90;;;;;;5033106;28;20211;-88
2022/10/04 11:06:03;;;;;;;0.90;0.90;;;13.70;99.90;;;;;;5034467;28;20614;-91
2022/10/04 11:09:03;;;;;;;1.40;1.30;;;13.50;99.90;;;;;;5017634;28;20188;-90
2022/10/04 11:12:07;;;;;;;5.13;2.28;;;13.40;99.90;;;;;;5033279;28;20177;-89
2022/10/04 11:15:13;;;;;;;1.00;1.00;;;13.30;99.90;;;;;;5018678;28;20580;-87
2022/10/04 11:17:57;;;;;;;2.25;0.98;;;13.30;99.90;;;;;;5039839;28;20181;-86
2022/10/04 11:20:48;;;;;;;1.67;1.42;;;13.20;99.90;;;;;;5034288;28;20153;-86
2022/10/04 11:23:32;;;;;;;1.50;1.23;;;13.20;99.90;;;;;;5032821;28;20304;-88
2022/10/04 11:26:19;;;;;;;1.30;1.20;;;13.10;99.90;;;;;;5033001;28;20263;-87
2022/10/04 11:28:47;;;;;;;4.82;2.25;;;13.10;99.90;;;;;;5034161;28;20165;-86
2022/10/04 11:31:55;;;;;;;0.80;0.80;;;13.10;99.90;;;;;;5032367;28;20235;-88
2022/10/04 11:34:58;;;;;;;1.23;1.10;;;13.10;99.90;;;;;;5033283;28;20172;-89
2022/10/04 11:37:42;;;;;;;1.10;1.00;;;13.00;99.90;;;;;;5025568;28;20226;-88
2022/10/04 11:40:08;;;;;;;1.83;1.27;;;13.00;99.90;;;;;;5032459;28;20180;-89
2022/10/04 11:43:08;;;;;;;1.85;1.05;;;15.00;99.90;;;;;;5033686;28;20211;-89
2022/10/04 11:46:07;;;;;;;3.65;1.02;;;12.90;99.90;;;;;;5023457;28;20195;-90
2022/10/04 11:48:38;;;;;;;1.23;1.13;;;13.00;99.90;;;;;;5033055;28;20183;-90
2022/10/04 11:51:09;;;;;;;1.30;1.15;;;12.90;99.90;;;;;;5033476;28;20161;-90
2022/10/04 11:54:02;;;;;;;1.20;1.10;;;12.90;99.90;;;;;;5034006;28;20184;-90
2022/10/04 11:57:05;;;;;;;2.35;1.40;;;12.90;99.90;;;;;;5033723;28;20255;-90
2022/10/04 11:59:54;;;;;;;1.50;1.40;;;12.80;99.90;;;;;;5034394;28;20172;-90
2022/10/04 12:02:46;;;;;;;1.30;1.20;;;12.70;99.90;;;;;;5031610;28;20228;-90
2022/10/04 12:06:00;;;;;;;1.10;1.00;;;12.70;99.90;;;;;;5032537;28;20177;-91
2022/10/04 12:08:50;;;;;;;2.00;1.10;;;12.80;99.90;;;;;;4992890;28;20200;-90
2022/10/04 12:14:44;;;;;;;5.88;1.13;;;12.70;99.90;;;;;;5033877;28;20168;-89
2022/10/04 12:17:10;;;;;;;0.88;0.88;;;12.70;99.90;;;;;;5026528;28;20193;-91
2022/10/04 12:19:38;;;;;;;2.25;1.08;;;12.60;99.90;;;;;;5035363;28;20180;-90
2022/10/04 12:22:17;;;;;;;3.30;1.40;;;12.60;99.90;;;;;;5032241;28;20208;-90
2022/10/04 12:24:58;;;;;;;5.82;1.60;;;12.60;99.90;;;;;;5033766;28;20169;-90
2022/10/04 12:27:24;;;;;;;1.33;1.10;;;12.70;99.90;;;;;;5033453;28;20500;-91
2022/10/04 12:30:08;;;;;;;6.90;1.70;;;12.70;99.90;;;;;;5032295;28;20187;-90
2022/10/04 12:32:56;;;;;;;1.58;1.23;;;12.90;99.90;;;;;;5033231;28;20763;-90
2022/10/04 12:35:52;;;;;;;1.10;1.00;;;12.90;99.90;;;;;;5031971;28;20640;-90
2022/10/04 12:38:38;;;;;;;3.92;1.42;;;12.90;99.90;;;;;;5032121;28;20207;-91
2022/10/04 12:41:23;;;;;;;1.25;1.15;;;12.90;99.90;;;;;;5032449;28;20230;-90
2022/10/04 12:44:23;;;;;;;1.00;0.90;;;13.00;99.90;;;;;;5033881;28;20640;-90
2022/10/04 12:47:00;;;;;;;1.10;1.00;;;13.00;99.90;;;;;;5032187;28;20165;-90
2022/10/04 12:49:47;;;;;;;1.25;1.17;;;13.00;99.90;;;;;;5032094;28;20314;-91
2022/10/04 12:52:23;;;;;;;1.23;1.13;;;13.10;99.90;;;;;;5032413;28;20623;-90
2022/10/04 12:54:51;;;;;;;1.80;1.35;;;13.10;99.90;;;;;;5033060;28;20161;-90
2022/10/04 12:57:56;;;;;;;3.70;0.90;;;13.10;99.90;;;;;;5032623;28;20184;-91
2022/10/04 13:00:31;;;;;;;1.08;0.90;;;13.20;99.90;;;;;;5034038;28;20169;-89
2022/10/04 13:03:26;;;;;;;2.35;1.08;;;13.20;99.90;;;;;;5036857;28;20291;-90
2022/10/04 13:06:27;;;;;;;3.15;1.10;;;13.20;99.90;;;;;;5034058;28;20188;-90
2022/10/04 13:12:34;;;;;;;1.27;1.10;;;13.20;99.90;;;;;;5036129;28;20219;-91
2022/10/04 13:15:18;;;;;;;1.15;1.00;;;13.10;99.90;;;;;;5018916;28;20172;-91
2022/10/04 13:17:58;;;;;;;1.75;1.25;;;13.10;99.90;;;;;;5027267;28;20169;-91
2022/10/04 13:20:24;;;;;;;1.63;1.30;;;13.20;99.90;;;;;;5029647;28;20177;-90
2022/10/04 13:22:58;;;;;;;1.50;1.10;;;13.20;99.90;;;;;;5025941;28;20213;-90
2022/10/04 13:26:01;;;;;;;1.30;1.20;;;13.20;99.90;;;;;;5021812;28;20746;-86
2022/10/04 13:28:51;;;;;;;1.13;0.82;;;13.20;99.90;;;;;;5015562;28;20700;-88
2022/10/04 13:31:33;;;;;;;1.90;1.40;;;13.20;99.90;;;;;;5016750;28;20229;-87
2022/10/04 13:34:01;;;;;;;1.23;1.05;;;13.20;99.90;;;;;;5016119;28;20185;-88
2022/10/04 13:36:30;;;;;;;1.98;1.30;;;13.40;99.90;;;;;;5014627;28;20213;-88
2022/10/04 13:39:31;;;;;;;2.65;1.20;;;13.40;99.90;;;;;;5014403;28;20227;-87
2022/10/04 13:42:05;;;;;;;1.73;1.20;;;13.40;99.90;;;;;;5011331;28;20227;-88
2022/10/04 13:44:58;;;;;;;1.52;1.10;;;13.50;99.90;;;;;;5014704;28;20184;-87
2022/10/04 13:47:50;;;;;;;1.00;1.00;;;13.50;99.90;;;;;;5016253;28;20181;-87
2022/10/04 13:50:47;;;;;;;1.35;1.00;;;13.40;99.90;;;;;;5015817;28;20252;-89
2022/10/04 13:56:39;;;;;;;1.60;1.13;;;13.40;99.90;;;;;;5015843;28;20533;-89
2022/10/04 13:59:24;;;;;;;2.45;1.20;;;13.40;99.90;;;;;;5014621;28;20181;-88
2022/10/04 14:02:21;;;;;;;1.08;1.00;;;13.40;99.90;;;;;;5020741;28;20670;-86
2022/10/04 14:05:04;;;;;;;0.90;0.90;;;13.30;99.90;;;;;;5014682;28;20188;-87
2022/10/04 14:07:51;;;;;;;1.10;1.00;;;13.30;99.90;;;;;;5015679;28;20165;-88
2022/10/04 14:10:22;;;;;;;4.28;1.77;;;13.30;99.90;;;;;;5014430;28;20181;-89
2022/10/04 14:12:48;;;;;;;1.80;1.20;;;13.30;99.90;;;;;;5013238;28;20188;-88
2022/10/04 14:15:35;;;;;;;1.98;1.17;;;13.20;99.90;;;;;;5013956;28;20189;-89
2022/10/04 14:18:23;;;;;;;2.05;1.38;;;13.20;99.90;;;;;;5014127;28;20231;-88
2022/10/04 14:21:11;;;;;;;1.50;1.30;;;13.20;99.90;;;;;;5013967;28;21088;-88
2022/10/04 14:24:03;;;;;;;1.77;1.30;;;13.10;99.90;;;;;;5015290;28;20201;-88
2022/10/04 14:26:48;;;;;;;1.63;1.23;;;13.10;99.90;;;;;;5015496;28;20164;-88
2022/10/04 14:29:39;;;;;;;2.80;1.60;;;13.10;99.90;;;;;;5015035;28;20509;-87
2022/10/04 14:32:15;;;;;;;0.75;0.75;;;13.10;99.90;;;;;;5014840;28;20252;-90